KBEC/BEC METAR and TAF weather

Enter ICAO airport designator
Station Type Date Time Source
KBEC METAR 2021/03/06 01:35 UTC NOAA

KBEC 060135Z AUTO 11003KT 10SM CLR 11/02 A3026 RMK AO2 T01110022


Station Type Date Time Source
KBEC Decoded METAR 2021/03/06 01:35 UTC NOAA

Station name not available
Mar 05, 2021 - 08:35 PM EST / 2021.03.06 0135 UTC
Wind: from the ESE (110 degrees) at 3 MPH (3 KT):0
Visibility: 10 mile(s):0
Sky conditions: clear
Temperature: 52.0 F (11.1 C)
Dew Point: 36.0 F (2.2 C)
Relative Humidity: 54%
Pressure (altimeter): 30.26 in. Hg (1024 hPa)
ob: KBEC 060135Z AUTO 11003KT 10SM CLR 11/02 A3026 RMK AO2 T01110022
cycle: 1

Station Type Date Time Source
KBEC TAF UTC NOAA

Error!

Example: see airport list